Aeroporto :
LOGIN :

Iscrizione | Disclaimer

   EN    FR    IT 

 










Sommario :    VFR   VFR Marginale   IFR   IFR Intensivo   IFR Molto Intensivo
Visibilità : 
Base nubi : 
>= 8 km
>= 3000ft
5 / 8 km
1000 / 3000 ft
1500m / 5 km
500 / 1000 ft
800 / 1500m
200 / 500 ft
< 800m
< 200 ft
Simboli :   Temporali  Nebbia  Neve Forte  Precipitazioni Forti  Vento > 20 kt
SIGMETs :   Varie  Temporali  Ghiacco  Turbolenza  Onda orograficha  Ceneri Vulcaniche







- Altitudine del aeroporto : 277 ft
- Codice IATA : JER
- Carte del aeroporto


EGJJ - Jersey

ULTIMO METAR :
  • 240650Z VRB02KT CAVOK 20/11 Q1025

METARs OBSOLETI :
  • 240620Z 11004KT CAVOK 16/11 Q1025
  • 240550Z 12005KT CAVOK 15/10 Q1024
  • 240520Z 12005KT CAVOK 14/08 Q1024
  • 240450Z 11006KT CAVOK 14/08 Q1024
  • 240420Z AUTO 05007KT CAVOK 14/08 Q1024

TAF TAF EGJJ
Valido dal 24 a 06 ore il 24 a 15 ore UTC


240456Z 2406/2415 09006KT CAVOK
BECMG 2409/2412 32010KT
ATIS : +44 1534 498 073
Nessun NOTAM noto per questo aeroporto.



MetMap, La meteo Aeronautica in un colpo d'occhio ! - Copyright ORBIFLY Dicembre 2007 - Disclaimer

ORBIFLY MET'MAP TEAM :

Programmazione e sviluppo : Alexandra Zaïnal
Concezione e sviluppo : Baudouin d'Aumeries
Co-Programmazione e sviluppo : Marc-Olivier Méhu
Supporto tecnico e logistico : Manuel Goepfert
Aiuto per la traduzione : Arnaldo La Scala

Contatto : metmap@orbifly.com




FONTI E CREDITI :

   NOAA